Time;durP1;ratioP1;P1;durP2;ratioP2;P2;SDS_P1;SDS_P2;PMS_P1;PMS_P2;Temp;Humidity;BMP_temperature;BMP_pressure;BME280_temperature;BME280_humidity;BME280_pressure;Samples;Min_cycle;Max_cycle;Signal;HPM_P1;HPM_P2
2022/09/23 00:01:09;;;;;;;0.73;0.70;;;;;;;14.00;68.30;101304.69;5028054;28;20486;-66
2022/09/23 00:03:37;;;;;;;0.40;0.40;;;;;;;13.96;68.74;101301.16;5028357;28;20473;-67
2022/09/23 00:06:05;;;;;;;1.27;0.75;;;;;;;14.02;67.92;101309.75;5043851;28;20039;-66
2022/09/23 00:08:31;;;;;;;1.15;0.85;;;;;;;13.98;68.10;101298.06;5036803;28;20493;-67
2022/09/23 00:10:56;;;;;;;1.30;0.52;;;;;;;13.97;67.68;101301.94;5029746;28;20041;-67
2022/09/23 00:13:24;;;;;;;1.13;0.77;;;;;;;13.85;67.81;101289.34;5040876;28;20072;-67
2022/09/23 00:15:50;;;;;;;1.35;0.80;;;;;;;13.85;67.98;101289.34;5025418;28;20021;-66
2022/09/23 00:18:16;;;;;;;0.95;0.60;;;;;;;13.96;67.68;101295.72;5033592;28;20039;-66
2022/09/23 00:20:43;;;;;;;0.75;0.75;;;;;;;13.92;68.33;101294.88;5029297;28;20037;-66
2022/09/23 00:23:08;;;;;;;0.60;0.60;;;;;;;13.83;67.45;101293.56;5032989;28;20033;-67
2022/09/23 00:25:33;;;;;;;0.95;0.60;;;;;;;13.69;68.43;101280.56;5031011;28;20180;-66
2022/09/23 00:27:59;;;;;;;0.65;0.65;;;;;;;13.81;68.76;101293.94;5031284;28;20040;-66
2022/09/23 00:30:25;;;;;;;0.50;0.50;;;;;;;13.89;68.83;101284.00;5033184;28;20447;-67
2022/09/23 00:32:51;;;;;;;0.57;0.50;;;;;;;13.83;68.51;101288.16;5032306;28;20071;-66
2022/09/23 00:35:17;;;;;;;1.05;0.80;;;;;;;13.82;69.19;101279.22;5032108;28;20021;-66
2022/09/23 00:37:42;;;;;;;0.80;0.80;;;;;;;13.81;68.33;101277.69;5026677;28;20025;-66
2022/09/23 00:40:11;;;;;;;1.25;0.90;;;;;;;13.68;68.61;101279.00;5039356;28;20477;-66
2022/09/23 00:42:36;;;;;;;1.52;0.57;;;;;;;13.66;69.15;101284.00;5032829;28;20037;-66
2022/09/23 00:45:03;;;;;;;0.60;0.60;;;;;;;13.58;69.14;101274.19;5029933;28;20386;-67
2022/09/23 00:47:31;;;;;;;0.82;0.73;;;;;;;13.69;69.69;101280.56;5031282;28;20087;-66
2022/09/23 00:50:24;;;;;;;0.70;0.50;;;;;;;13.53;69.10;101275.25;5031871;28;20052;-66
2022/09/23 00:52:53;;;;;;;0.60;0.60;;;;;;;13.41;69.64;101271.94;5026840;28;20034;-66
2022/09/23 00:55:24;;;;;;;0.77;0.63;;;;;;;13.55;69.72;101269.47;5037769;28;20156;-66
2022/09/23 00:57:53;;;;;;;0.50;0.50;;;;;;;13.65;69.63;101268.88;5036077;28;20041;-67
2022/09/23 01:00:19;;;;;;;0.57;0.57;;;;;;;13.71;68.57;101269.38;5031589;28;20049;-66
2022/09/23 01:02:46;;;;;;;0.68;0.68;;;;;;;13.66;69.25;101272.38;5023532;28;20037;-67
2022/09/23 01:05:13;;;;;;;1.45;0.90;;;;;;;13.55;69.58;101269.47;5030256;28;20067;-66
2022/09/23 01:07:40;;;;;;;2.47;0.73;;;;;;;13.43;69.27;101265.00;5032303;28;20037;-66
2022/09/23 01:10:26;;;;;;;1.13;0.80;;;;;;;13.49;70.19;101260.09;5032278;28;20116;-66
2022/09/23 01:13:09;;;;;;;1.10;0.77;;;;;;;13.61;70.27;101259.91;4983298;28;20089;-66
2022/09/23 01:16:19;;;;;;;1.08;0.77;;;;;;;13.46;69.91;101249.97;4984719;28;20046;-67
2022/09/23 01:18:57;;;;;;;1.20;0.80;;;;;;;13.41;70.01;101247.59;4990833;28;20538;-66
2022/09/23 01:22:15;;;;;;;1.45;0.60;;;;;;;13.32;70.43;101245.09;4973722;28;20120;-67
2022/09/23 01:25:19;;;;;;;0.60;0.60;;;;;;;13.27;70.81;101239.19;4932040;29;20051;-66
2022/09/23 01:28:04;;;;;;;1.10;0.63;;;;;;;13.52;69.48;101237.72;4970347;28;20034;-67
2022/09/23 01:30:37;;;;;;;1.95;1.02;;;;;;;13.39;70.44;101233.63;4974045;28;20459;-66
2022/09/23 01:33:24;;;;;;;0.88;0.70;;;;;;;13.31;71.10;101235.44;4993130;28;20038;-66
2022/09/23 01:36:08;;;;;;;1.85;0.70;;;;;;;13.24;71.23;101226.41;4993100;28;20029;-66
2022/09/23 01:38:59;;;;;;;0.98;0.88;;;;;;;13.32;70.10;101230.78;4995411;28;20038;-66
2022/09/23 01:41:31;;;;;;;0.70;0.60;;;;;;;13.46;70.11;101231.03;4973116;28;20045;-66
2022/09/23 01:44:22;;;;;;;1.25;0.80;;;;;;;13.48;69.66;101228.75;4989013;28;20049;-66
2022/09/23 01:46:53;;;;;;;0.98;0.90;;;;;;;13.25;71.07;101227.94;4989402;28;20038;-66
2022/09/23 01:49:26;;;;;;;1.05;0.77;;;;;;;13.17;70.94;101224.34;5001041;28;20049;-66
2022/09/23 01:52:15;;;;;;;0.50;0.50;;;;;;;13.07;71.50;101224.13;5031469;28;20428;-66
2022/09/23 01:54:56;;;;;;;1.10;0.88;;;;;;;12.96;71.94;101217.69;5017812;28;20045;-66
2022/09/23 01:57:35;;;;;;;0.47;0.45;;;;;;;13.00;72.09;101210.44;5031965;28;20029;-66
2022/09/23 02:00:21;;;;;;;0.80;0.80;;;;;;;12.79;72.39;101212.72;5031417;28;20440;-67
2022/09/23 02:02:59;;;;;;;0.85;0.63;;;;;;;12.98;72.78;101210.00;5023424;28;20028;-66
2022/09/23 02:05:33;;;;;;;0.85;0.73;;;;;;;12.94;72.57;101209.16;5034268;28;20045;-67
2022/09/23 02:08:06;;;;;;;0.75;0.70;;;;;;;12.97;72.75;101201.13;5034527;28;20394;-66
2022/09/23 02:10:43;;;;;;;1.05;0.90;;;;;;;13.09;71.82;101201.00;5036811;28;20389;-66
2022/09/23 02:13:19;;;;;;;1.65;0.85;;;;;;;13.03;72.21;101199.72;5030813;28;20045;-67
2022/09/23 02:15:51;;;;;;;1.55;0.75;;;;;;;13.02;71.96;101197.34;5030780;28;20108;-67
2022/09/23 02:18:27;;;;;;;0.95;0.90;;;;;;;13.07;72.89;101197.06;5025412;28;20064;-66
2022/09/23 02:20:57;;;;;;;1.30;0.80;;;;;;;12.90;72.54;101194.78;5027988;28;20559;-66
2022/09/23 02:23:35;;;;;;;1.17;0.77;;;;;;;12.95;73.30;101189.13;5029576;28;20029;-66
2022/09/23 02:26:19;;;;;;;0.95;0.60;;;;;;;12.86;73.37;101183.13;5031039;28;20034;-66
2022/09/23 02:28:51;;;;;;;5.53;0.90;;;;;;;12.61;74.00;101178.03;5027006;28;20064;-66
2022/09/23 02:31:39;;;;;;;1.33;0.80;;;;;;;12.70;74.21;101180.50;5030470;28;20033;-67
2022/09/23 02:34:04;;;;;;;0.63;0.60;;;;;;;12.91;73.35;101190.97;5025975;28;20040;-66
2022/09/23 02:36:37;;;;;;;1.17;0.70;;;;;;;12.89;72.51;101185.13;5025511;28;20414;-66
2022/09/23 02:39:07;;;;;;;6.07;0.80;;;;;;;12.71;73.72;101182.06;5020503;28;20029;-66
2022/09/23 02:41:42;;;;;;;1.38;0.60;;;;;;;12.66;73.88;101169.63;5029017;28;20444;-66
2022/09/23 02:44:15;;;;;;;0.80;0.80;;;;;;;12.82;73.64;101174.16;5030269;28;20037;-66
2022/09/23 02:46:42;;;;;;;0.90;0.63;;;;;;;12.70;74.45;101170.47;5023025;28;20450;-66
2022/09/23 02:49:24;;;;;;;1.33;0.90;;;;;;;12.61;74.59;101169.13;5030756;28;20121;-66
2022/09/23 02:51:50;;;;;;;1.10;0.63;;;;;;;12.73;74.83;101163.59;5030141;28;20048;-67
2022/09/23 02:54:22;;;;;;;0.50;0.50;;;;;;;12.84;74.83;101163.78;5030078;28;20033;-66
2022/09/23 02:56:48;;;;;;;0.90;0.70;;;;;;;12.99;73.63;101171.03;5029569;28;20029;-66
2022/09/23 02:59:18;;;;;;;0.82;0.70;;;;;;;12.92;74.00;101160.88;5030734;28;20042;-66
2022/09/23 03:01:51;;;;;;;1.50;0.80;;;;;;;12.94;74.67;101163.19;5030215;28;20068;-66
2022/09/23 03:04:19;;;;;;;1.40;0.93;;;;;;;12.95;74.13;101153.97;5022724;28;20033;-66
2022/09/23 03:07:06;;;;;;;1.15;0.70;;;;;;;12.91;74.40;101158.53;5040991;28;20043;-66
2022/09/23 03:09:53;;;;;;;1.13;0.80;;;;;;;12.74;75.38;101151.63;5031064;28;20123;-66
2022/09/23 03:12:25;;;;;;;1.02;0.70;;;;;;;12.68;75.15;101153.03;5037555;28;20044;-66
2022/09/23 03:15:01;;;;;;;0.77;0.77;;;;;;;12.67;76.05;101144.16;5015725;28;20044;-66
2022/09/23 03:17:37;;;;;;;1.65;0.80;;;;;;;12.80;75.94;101150.19;5035630;28;20087;-66
2022/09/23 03:20:11;;;;;;;1.30;0.70;;;;;;;12.75;76.42;101138.91;5023283;28;20032;-66
2022/09/23 03:22:45;;;;;;;0.82;0.60;;;;;;;12.70;76.64;101146.16;5036596;28;20041;-66
2022/09/23 03:25:15;;;;;;;0.75;0.75;;;;;;;12.67;77.17;101135.28;5031044;28;20482;-66
2022/09/23 03:27:42;;;;;;;5.40;1.13;;;;;;;12.76;77.02;101137.75;5044517;28;20116;-66
2022/09/23 03:30:09;;;;;;;2.15;0.90;;;;;;;12.69;77.09;101133.78;5041020;28;20022;-66
2022/09/23 03:32:37;;;;;;;0.73;0.73;;;;;;;12.75;77.40;101133.50;5036394;28;20038;-66
2022/09/23 03:35:04;;;;;;;0.88;0.80;;;;;;;12.62;76.21;101130.16;5036223;28;20575;-67
2022/09/23 03:37:38;;;;;;;3.40;0.90;;;;;;;12.70;76.45;101131.84;5032224;28;20037;-66
2022/09/23 03:40:26;;;;;;;2.30;0.68;;;;;;;12.72;76.91;101128.81;5033665;28;20025;-66
2022/09/23 03:42:54;;;;;;;1.10;0.80;;;;;;;12.66;76.85;101118.28;5045208;28;20037;-66
2022/09/23 03:45:25;;;;;;;0.82;0.70;;;;;;;12.77;77.07;101128.50;5049579;23;20109;-66
2022/09/23 03:47:50;;;;;;;1.85;0.90;;;;;;;12.84;76.24;101125.94;5032214;28;20063;-68
2022/09/23 03:50:16;;;;;;;0.98;0.88;;;;;;;12.86;76.68;101126.34;5065975;28;20029;-71
2022/09/23 03:52:42;;;;;;;0.82;0.70;;;;;;;12.73;76.38;101119.56;5046775;28;20045;-72
2022/09/23 03:55:09;;;;;;;1.17;0.98;;;;;;;12.73;76.64;101124.97;5037983;28;20120;-71
2022/09/23 03:57:35;;;;;;;1.00;0.70;;;;;;;12.83;76.82;101116.28;5056658;28;20852;-71
2022/09/23 04:00:01;;;;;;;1.10;0.70;;;;;;;12.87;77.02;101109.00;5055104;28;20051;-71
2022/09/23 04:02:37;;;;;;;0.70;0.70;;;;;;;12.70;76.44;101113.72;5063048;28;20496;-68
2022/09/23 04:05:02;;;;;;;1.23;0.77;;;;;;;12.88;76.41;101099.75;5059734;28;20117;-68
2022/09/23 04:07:28;;;;;;;1.25;0.82;;;;;;;12.96;75.70;101112.25;5038690;28;20073;-71
2022/09/23 04:09:54;;;;;;;0.80;0.80;;;;;;;12.79;76.45;101102.69;5059880;28;20040;-71
2022/09/23 04:12:20;;;;;;;3.10;0.80;;;;;;;12.70;75.90;101105.63;5043933;28;20029;-70
2022/09/23 04:14:45;;;;;;;1.83;1.10;;;;;;;12.83;75.98;101098.16;5055904;28;20032;-70
2022/09/23 04:17:11;;;;;;;0.85;0.80;;;;;;;13.00;75.95;101100.38;5053167;28;20100;-70
2022/09/23 04:19:37;;;;;;;1.85;0.80;;;;;;;12.99;76.22;101095.34;5055269;28;20039;-69
2022/09/23 04:22:03;;;;;;;1.20;0.68;;;;;;;12.95;75.49;101089.84;5052312;28;20032;-70
2022/09/23 04:24:29;;;;;;;0.63;0.63;;;;;;;12.87;76.36;101082.78;5056072;28;20119;-69
2022/09/23 04:26:55;;;;;;;1.27;0.85;;;;;;;12.81;76.32;101083.41;5044035;28;20117;-69
2022/09/23 04:29:23;;;;;;;0.77;0.60;;;;;;;12.83;75.63;101081.13;5060057;28;20178;-69
2022/09/23 04:31:49;;;;;;;3.80;0.80;;;;;;;12.89;76.15;101080.47;5046323;28;20495;-69
2022/09/23 04:34:16;;;;;;;2.67;1.10;;;;;;;12.99;75.39;101082.56;5047296;28;20075;-68
2022/09/23 04:36:43;;;;;;;1.65;1.00;;;;;;;13.03;74.68;101086.16;5045464;28;20036;-70
2022/09/23 04:39:09;;;;;;;0.93;0.85;;;;;;;12.93;75.41;101086.72;5053633;28;20040;-70
2022/09/23 04:41:35;;;;;;;6.07;1.13;;;;;;;12.84;75.78;101077.28;5029931;28;20025;-70
2022/09/23 04:44:01;;;;;;;0.80;0.73;;;;;;;12.71;76.43;101073.97;5030929;28;20489;-70
2022/09/23 04:46:26;;;;;;;1.52;0.63;;;;;;;12.88;76.01;101078.91;5034994;28;20056;-70
2022/09/23 04:48:52;;;;;;;1.55;0.90;;;;;;;12.88;76.55;101080.81;5048037;28;20075;-70
2022/09/23 04:51:20;;;;;;;1.08;0.75;;;;;;;12.79;76.62;101078.38;5055588;28;20017;-70
2022/09/23 04:53:48;;;;;;;0.60;0.60;;;;;;;12.83;76.69;101076.53;5051921;28;20082;-70
2022/09/23 04:56:19;;;;;;;3.08;1.38;;;;;;;12.81;76.47;101080.72;5052644;28;20036;-70
2022/09/23 04:58:45;;;;;;;2.10;1.02;;;;;;;12.78;76.63;101071.38;5046865;28;20489;-70
2022/09/23 05:01:16;;;;;;;1.88;0.98;;;;;;;12.66;76.70;101080.44;5025951;28;20044;-70
2022/09/23 05:03:43;;;;;;;1.42;1.10;;;;;;;12.70;77.04;101075.09;5052569;28;20032;-70
2022/09/23 05:06:12;;;;;;;0.88;0.88;;;;;;;12.82;76.71;101082.25;5051942;28;20113;-70
2022/09/23 05:08:38;;;;;;;1.45;0.80;;;;;;;12.92;76.93;101070.88;5051362;28;20039;-70
2022/09/23 05:11:04;;;;;;;1.38;0.80;;;;;;;12.98;76.05;101066.72;5051870;28;20028;-69
2022/09/23 05:13:31;;;;;;;1.23;0.93;;;;;;;12.95;76.56;101068.22;5036091;28;20052;-69
2022/09/23 05:15:58;;;;;;;2.75;1.00;;;;;;;13.04;76.53;101065.31;5031613;28;20025;-70
2022/09/23 05:18:24;;;;;;;3.00;1.30;;;;;;;12.87;76.27;101068.47;5051117;28;20066;-70
2022/09/23 05:20:54;;;;;;;1.58;1.20;;;;;;;12.87;76.61;101074.66;5042121;28;20032;-69
2022/09/23 05:23:20;;;;;;;1.02;0.80;;;;;;;12.78;76.96;101084.13;5049444;28;20086;-69
2022/09/23 05:25:47;;;;;;;0.98;0.90;;;;;;;12.88;77.10;101072.72;5009852;28;20025;-68
2022/09/23 05:28:13;;;;;;;2.45;1.27;;;;;;;13.04;76.66;101070.72;5051732;28;20390;-68
2022/09/23 05:30:39;;;;;;;1.23;0.73;;;;;;;13.10;76.34;101074.69;5044654;28;20041;-68
2022/09/23 05:33:04;;;;;;;2.10;1.17;;;;;;;13.23;75.21;101078.75;5039980;28;20489;-69
2022/09/23 05:35:30;;;;;;;1.92;1.05;;;;;;;13.26;74.96;101067.22;5040331;28;20566;-68
2022/09/23 05:37:55;;;;;;;1.77;1.10;;;;;;;12.88;75.73;101068.09;5037717;28;20049;-69
2022/09/23 05:40:20;;;;;;;0.93;0.88;;;;;;;12.94;76.22;101063.97;5036908;28;20087;-69
2022/09/23 05:42:46;;;;;;;2.58;1.10;;;;;;;13.00;76.16;101059.03;5039065;28;20029;-70
2022/09/23 05:45:11;;;;;;;4.82;0.95;;;;;;;12.96;76.55;101060.91;5037322;28;20396;-69
2022/09/23 05:47:37;;;;;;;1.70;0.98;;;;;;;12.92;76.78;101062.75;5045686;28;20041;-69
2022/09/23 05:50:02;;;;;;;0.98;0.85;;;;;;;12.83;77.92;101064.91;5035901;28;20371;-70
2022/09/23 05:52:28;;;;;;;1.00;0.93;;;;;;;12.89;76.92;101058.09;5022006;28;20052;-69
2022/09/23 05:54:53;;;;;;;0.80;0.73;;;;;;;13.03;76.45;101061.00;5043489;28;20037;-70
2022/09/23 05:57:19;;;;;;;1.95;1.00;;;;;;;12.93;77.27;101061.63;5045621;28;20064;-70
2022/09/23 05:59:46;;;;;;;1.52;0.95;;;;;;;13.03;76.54;101064.53;5009362;28;20230;-69
2022/09/23 06:02:13;;;;;;;1.77;1.02;;;;;;;13.05;76.32;101056.03;5040333;28;20550;-70
2022/09/23 06:04:38;;;;;;;4.43;1.40;;;;;;;13.07;76.64;101059.97;5049742;28;20108;-70
2022/09/23 06:07:04;;;;;;;2.42;1.20;;;;;;;13.20;77.94;101068.69;5045779;28;20166;-70
2022/09/23 06:09:29;;;;;;;2.05;0.98;;;;;;;13.29;76.90;101061.09;5035015;28;20536;-70
2022/09/23 06:11:55;;;;;;;1.42;0.95;;;;;;;13.37;76.74;101055.44;5037207;28;20033;-70
2022/09/23 06:14:20;;;;;;;2.72;0.80;;;;;;;13.36;75.77;101067.41;5020369;28;20175;-69
2022/09/23 06:16:46;;;;;;;1.83;0.80;;;;;;;13.23;75.77;101068.72;5022527;28;20029;-72
2022/09/23 06:19:11;;;;;;;1.67;1.05;;;;;;;13.33;76.23;101064.63;5037123;28;20048;-70
2022/09/23 06:21:39;;;;;;;1.25;1.15;;;;;;;13.13;76.19;101063.13;5035880;28;20105;-70
2022/09/23 06:24:06;;;;;;;3.10;1.40;;;;;;;13.29;76.69;101055.69;5015963;28;20037;-71
2022/09/23 06:26:33;;;;;;;1.05;0.90;;;;;;;13.32;75.99;101063.06;5049282;28;20036;-69
2022/09/23 06:29:01;;;;;;;1.77;1.08;;;;;;;13.40;75.78;101060.13;5041625;28;20041;-70
2022/09/23 06:31:29;;;;;;;1.10;0.90;;;;;;;13.38;75.78;101059.69;5037959;28;20036;-70
2022/09/23 06:33:55;;;;;;;1.98;1.20;;;;;;;13.24;75.53;101058.72;5033805;28;20044;-70
2022/09/23 06:36:21;;;;;;;0.85;0.82;;;;;;;13.28;75.59;101062.22;5041856;28;20056;-70
2022/09/23 06:38:48;;;;;;;1.00;0.82;;;;;;;13.45;75.50;101067.16;5039751;28;20094;-70
2022/09/23 06:41:14;;;;;;;2.50;0.90;;;;;;;13.41;75.43;101063.59;5034055;28;20447;-69
2022/09/23 06:43:39;;;;;;;1.20;1.00;;;;;;;13.45;76.27;101061.75;5024915;28;20072;-70
2022/09/23 06:46:06;;;;;;;1.05;0.90;;;;;;;13.47;75.22;101068.31;5025686;28;20091;-70
2022/09/23 06:48:34;;;;;;;1.85;0.98;;;;;;;13.58;75.34;101069.28;5022847;28;20041;-70
2022/09/23 06:51:02;;;;;;;1.30;0.90;;;;;;;13.61;74.94;101067.75;5041226;28;20036;-68
2022/09/23 06:53:31;;;;;;;1.17;0.85;;;;;;;13.54;74.50;101057.63;5041291;28;20036;-69
2022/09/23 06:56:01;;;;;;;0.70;0.70;;;;;;;13.54;75.58;101065.75;5038237;28;20039;-70
2022/09/23 06:58:28;;;;;;;1.52;0.95;;;;;;;13.54;74.97;101062.25;5040502;28;20043;-69
2022/09/23 07:01:16;;;;;;;5.05;0.98;;;;;;;13.70;74.84;101060.19;5041043;28;20038;-69
2022/09/23 07:03:43;;;;;;;1.42;1.05;;;;;;;13.77;74.52;101052.16;5035451;28;20140;-70
2022/09/23 07:06:09;;;;;;;1.52;0.88;;;;;;;13.55;75.53;101052.97;5019677;28;20029;-68
2022/09/23 07:08:35;;;;;;;1.75;1.05;;;;;;;13.53;75.92;101058.75;5040314;28;20039;-69
2022/09/23 07:11:03;;;;;;;1.02;0.73;;;;;;;13.65;75.01;101052.34;5026607;28;20030;-70
2022/09/23 07:13:31;;;;;;;1.77;0.90;;;;;;;13.68;75.44;101062.47;5046106;28;20036;-69
2022/09/23 07:15:57;;;;;;;1.25;0.90;;;;;;;13.65;74.74;101052.34;5044601;28;20033;-70
2022/09/23 07:18:24;;;;;;;1.17;1.08;;;;;;;13.73;74.60;101056.72;5023159;28;20521;-70
2022/09/23 07:20:52;;;;;;;1.85;1.00;;;;;;;13.55;74.48;101052.97;5035868;28;20160;-69
2022/09/23 07:23:17;;;;;;;1.13;1.02;;;;;;;13.70;75.11;101049.34;5036808;28;20353;-70
2022/09/23 07:25:45;;;;;;;2.22;1.20;;;;;;;13.83;75.49;101055.31;5039729;28;20036;-70
2022/09/23 07:28:11;;;;;;;2.42;0.90;;;;;;;13.65;75.15;101056.97;5040580;28;20033;-69
2022/09/23 07:30:38;;;;;;;2.63;1.23;;;;;;;13.70;74.79;101054.75;5027570;28;20078;-69
2022/09/23 07:33:04;;;;;;;0.65;0.65;;;;;;;13.88;74.09;101065.84;5040525;28;20505;-69
2022/09/23 07:35:30;;;;;;;4.05;1.55;;;;;;;13.86;74.12;101060.78;5030045;28;20163;-69
2022/09/23 07:37:55;;;;;;;2.30;1.20;;;;;;;14.02;74.32;101060.59;5030196;28;20091;-69
2022/09/23 07:40:22;;;;;;;1.13;1.02;;;;;;;14.26;73.19;101066.34;5038267;28;20025;-69
2022/09/23 07:42:47;;;;;;;1.45;1.05;;;;;;;14.40;72.90;101061.09;5009456;28;20030;-69
2022/09/23 07:45:13;;;;;;;1.15;1.00;;;;;;;14.56;72.73;101073.63;5033209;28;20040;-69
2022/09/23 07:47:39;;;;;;;1.27;0.98;;;;;;;14.86;71.01;101060.81;5030235;28;20037;-69
2022/09/23 07:50:07;;;;;;;1.00;0.80;;;;;;;15.17;69.21;101063.03;5016710;28;20083;-70
2022/09/23 07:52:35;;;;;;;1.33;0.73;;;;;;;15.53;69.41;101070.28;5020619;28;20068;-70
2022/09/23 07:55:01;;;;;;;2.88;1.02;;;;;;;15.85;68.84;101060.41;5013652;28;20084;-70
2022/09/23 07:57:26;;;;;;;2.08;1.15;;;;;;;15.84;66.86;101066.22;5037207;28;20036;-70
2022/09/23 07:59:52;;;;;;;2.40;1.00;;;;;;;16.06;66.37;101067.91;5025472;28;20100;-70
2022/09/23 08:02:17;;;;;;;1.20;0.85;;;;;;;16.21;65.47;101064.06;5040367;28;20029;-72
2022/09/23 08:04:43;;;;;;;2.55;0.90;;;;;;;16.44;64.71;101075.41;5042091;28;20727;-70
2022/09/23 08:07:11;;;;;;;1.10;0.80;;;;;;;16.69;64.28;101078.22;5032361;28;20056;-70
2022/09/23 08:09:40;;;;;;;1.20;0.70;;;;;;;16.86;63.46;101072.06;5033499;28;20034;-70
2022/09/23 08:12:10;;;;;;;1.60;0.82;;;;;;;16.95;62.00;101077.91;5039796;28;20046;-70
2022/09/23 08:14:37;;;;;;;1.10;0.90;;;;;;;17.14;61.99;101066.63;5030270;28;20040;-70
2022/09/23 08:17:03;;;;;;;1.23;0.40;;;;;;;17.36;60.92;101078.31;5034047;28;20033;-70
2022/09/23 08:19:29;;;;;;;1.35;0.90;;;;;;;17.41;60.68;101080.63;5041267;28;20134;-70
2022/09/23 08:21:56;;;;;;;0.50;0.50;;;;;;;17.38;60.73;101073.25;5028888;28;20064;-71
2022/09/23 08:24:23;;;;;;;0.63;0.50;;;;;;;17.47;60.98;101074.41;5041454;28;20059;-70
2022/09/23 08:26:52;;;;;;;2.75;0.70;;;;;;;17.70;59.85;101072.06;5045624;28;20464;-70
2022/09/23 08:29:22;;;;;;;0.80;0.60;;;;;;;17.50;60.16;101070.16;5050212;28;20045;-70
2022/09/23 08:31:48;;;;;;;3.03;0.65;;;;;;;17.39;59.62;101072.84;5041360;28;20036;-70
2022/09/23 08:34:18;;;;;;;1.13;0.68;;;;;;;17.41;59.85;101067.78;5038481;28;20037;-71
2022/09/23 08:36:44;;;;;;;1.20;0.80;;;;;;;17.65;60.38;101068.97;5050066;28;20052;-70
2022/09/23 08:39:17;;;;;;;0.40;0.40;;;;;;;17.87;58.94;101063.06;5040378;28;20029;-71
2022/09/23 08:42:05;;;;;;;2.72;0.88;;;;;;;18.09;59.59;101069.22;5039351;28;20567;-71
2022/09/23 08:44:52;;;;;;;1.02;0.60;;;;;;;18.31;59.00;101067.94;5022427;28;20042;-73
2022/09/23 08:47:27;;;;;;;1.05;0.60;;;;;;;18.14;57.57;101059.88;5045623;28;20036;-70
2022/09/23 08:49:53;;;;;;;1.00;0.65;;;;;;;18.05;58.08;101063.00;5030182;28;20056;-69
2022/09/23 08:52:34;;;;;;;1.35;0.80;;;;;;;17.86;60.48;101053.34;5046646;28;20512;-69
2022/09/23 08:55:02;;;;;;;2.63;0.80;;;;;;;18.14;61.41;101047.00;5022727;28;20044;-70
2022/09/23 08:57:49;;;;;;;2.33;0.80;;;;;;;18.44;61.17;101043.78;5024919;28;20037;-70
2022/09/23 09:00:25;;;;;;;6.32;2.35;;;;;;;18.47;58.77;101054.66;5044279;28;20119;-70
2022/09/23 09:02:53;;;;;;;2.55;0.85;;;;;;;18.38;58.10;101053.50;5039486;28;20048;-70
2022/09/23 09:05:25;;;;;;;0.93;0.47;;;;;;;18.14;58.42;101047.00;5020236;28;20033;-68
2022/09/23 09:07:51;;;;;;;;;;;;;;;18.37;57.63;101051.97;5051005;28;20482;-70
2022/09/23 09:10:22;;;;;;;1.00;0.60;;;;;;;18.69;58.38;101050.63;5046554;28;20209;-69
2022/09/23 09:13:06;;;;;;;0.77;0.50;;;;;;;18.90;58.28;101055.16;5035091;28;20037;-69
2022/09/23 09:15:41;;;;;;;2.03;0.60;;;;;;;19.25;57.32;101043.97;5035997;28;20032;-70
2022/09/23 09:18:21;;;;;;;0.95;0.60;;;;;;;19.36;55.52;101049.34;5038567;28;20502;-69
2022/09/23 09:21:07;;;;;;;0.50;0.50;;;;;;;19.10;54.95;101053.47;5033016;28;20057;-69
2022/09/23 09:23:47;;;;;;;0.52;0.50;;;;;;;19.02;56.55;101040.25;5022595;28;20029;-71
2022/09/23 09:26:21;;;;;;;0.60;0.57;;;;;;;19.17;56.57;101030.75;5040319;28;20036;-70
2022/09/23 09:29:15;;;;;;;1.17;0.73;;;;;;;19.72;55.55;101034.91;5028424;28;20040;-69
2022/09/23 09:31:44;;;;;;;0.75;0.60;;;;;;;19.99;54.14;101036.97;5037958;28;20055;-69
2022/09/23 09:34:10;;;;;;;0.40;0.40;;;;;;;20.23;53.79;101036.69;5039512;28;20168;-69
2022/09/23 09:36:47;;;;;;;0.73;0.60;;;;;;;20.71;53.15;101030.19;5043525;28;20381;-69
2022/09/23 09:39:13;;;;;;;0.65;0.60;;;;;;;20.60;52.91;101025.63;5030884;28;20061;-70
2022/09/23 09:41:49;;;;;;;0.50;0.50;;;;;;;20.45;53.26;101028.97;5040186;28;20401;-70
2022/09/23 09:44:43;;;;;;;1.27;0.52;;;;;;;20.36;53.08;101018.53;5038387;28;20041;-70
2022/09/23 09:50:12;;;;;;;0.63;0.40;;;;;;;20.85;54.79;101021.75;5039112;28;20040;-68
2022/09/23 09:52:38;;;;;;;0.75;0.40;;;;;;;21.01;54.39;101017.19;5042102;28;20053;-67
2022/09/23 09:55:25;;;;;;;0.57;0.40;;;;;;;20.88;52.55;101021.69;5046762;28;20036;-68
2022/09/23 09:58:00;;;;;;;0.80;0.52;;;;;;;20.99;53.79;101021.50;5036539;28;20103;-66
2022/09/23 10:00:26;;;;;;;0.95;0.60;;;;;;;21.11;52.21;101013.50;5048249;28;20116;-67
2022/09/23 10:02:54;;;;;;;0.60;0.60;;;;;;;20.86;52.26;101013.13;5047105;28;20040;-68
2022/09/23 10:05:27;;;;;;;0.60;0.50;;;;;;;20.65;52.97;101010.72;5036940;28;20112;-66
2022/09/23 10:07:53;;;;;;;1.23;0.50;;;;;;;20.69;52.06;101014.16;5028465;28;20485;-66
2022/09/23 10:10:23;;;;;;;0.47;0.45;;;;;;;20.65;52.85;100992.28;5050217;28;20021;-67
2022/09/23 10:12:49;;;;;;;1.23;0.90;;;;;;;20.67;52.10;101002.84;5052373;28;20493;-67
2022/09/23 10:15:31;;;;;;;0.80;0.45;;;;;;;20.51;51.60;101003.47;5044112;28;20044;-68
2022/09/23 10:18:00;;;;;;;0.70;0.50;;;;;;;20.56;52.01;100996.75;5041498;28;20539;-67
2022/09/23 10:20:36;;;;;;;0.70;0.63;;;;;;;20.32;52.78;100995.16;5047617;28;20033;-66
2022/09/23 10:23:14;;;;;;;0.50;0.50;;;;;;;20.38;53.50;100996.25;5039947;28;20060;-66
2022/09/23 10:25:40;;;;;;;0.60;0.60;;;;;;;20.47;54.17;100991.81;5048836;28;20041;-67
2022/09/23 10:28:29;;;;;;;1.35;0.38;;;;;;;20.62;54.27;100986.88;5023198;28;20033;-67
2022/09/23 10:31:06;;;;;;;0.70;0.40;;;;;;;20.63;53.91;100994.66;5016418;28;20075;-67
2022/09/23 10:33:31;;;;;;;1.25;0.63;;;;;;;20.85;51.91;100986.16;5028409;28;20123;-67
2022/09/23 10:35:56;;;;;;;0.82;0.50;;;;;;;20.97;52.77;100989.06;5033038;28;20113;-67
2022/09/23 10:38:22;;;;;;;2.03;1.08;;;;;;;21.10;52.67;100976.31;5037839;28;20591;-68
2022/09/23 10:46:44;;;;;;;1.13;0.47;;;;;;;21.11;51.54;100969.66;5031834;28;20083;-67
2022/09/23 10:49:25;;;;;;;0.60;0.60;;;;;;;20.83;51.59;100980.31;5042318;28;20482;-67
2022/09/23 10:52:35;;;;;;;0.70;0.50;;;;;;;21.04;51.62;100969.03;5036124;28;20033;-67
2022/09/23 10:55:36;;;;;;;0.50;0.50;;;;;;;21.17;53.10;100976.22;5026854;28;20047;-68
2022/09/23 10:58:30;;;;;;;1.75;0.68;;;;;;;21.31;50.14;100978.69;5022351;28;20037;-65
2022/09/23 11:01:12;;;;;;;0.68;0.32;;;;;;;21.56;50.96;100972.75;5041762;28;20029;-66
2022/09/23 11:03:37;;;;;;;1.10;0.55;;;;;;;21.64;49.75;100984.34;5046652;28;20040;-67
2022/09/23 11:06:25;;;;;;;1.55;0.60;;;;;;;21.41;49.52;100974.19;5029750;28;20036;-67
2022/09/23 11:09:09;;;;;;;0.40;0.40;;;;;;;21.08;50.01;100978.72;5024381;28;20759;-67
2022/09/23 11:12:01;;;;;;;0.35;0.28;;;;;;;21.04;50.20;100964.31;5035151;28;20063;-67
2022/09/23 11:14:58;;;;;;;0.30;0.30;;;;;;;21.13;50.74;100963.75;5023308;28;20816;-67
2022/09/23 11:17:37;;;;;;;1.20;0.55;;;;;;;21.21;50.67;100956.97;5038612;28;20500;-67
2022/09/23 11:20:22;;;;;;;0.47;0.40;;;;;;;21.44;50.66;100956.94;5013317;28;20029;-67
2022/09/23 11:23:09;;;;;;;0.55;0.40;;;;;;;21.52;50.28;100956.34;5042566;28;20170;-67
2022/09/23 11:25:58;;;;;;;0.73;0.50;;;;;;;21.43;49.58;100947.13;5028027;28;20041;-67
2022/09/23 11:28:44;;;;;;;1.35;0.68;;;;;;;21.49;49.20;100951.72;5054032;28;20041;-67
2022/09/23 11:31:24;;;;;;;1.35;0.60;;;;;;;21.35;49.31;100941.03;5042496;28;20028;-67
2022/09/23 11:34:03;;;;;;;1.53;0.37;;;;;;;21.34;48.89;100934.00;5043866;28;20060;-67
2022/09/23 11:36:37;;;;;;;0.60;0.30;;;;;;;21.12;48.27;100927.38;5053613;28;20424;-67
2022/09/23 11:39:13;;;;;;;0.90;0.40;;;;;;;21.32;48.80;100928.19;5056547;28;20116;-67
2022/09/23 11:41:39;;;;;;;1.02;0.47;;;;;;;21.24;49.18;100921.28;5053323;28;20029;-67
2022/09/23 11:44:27;;;;;;;0.50;0.30;;;;;;;21.01;49.14;100924.06;5027119;28;20033;-67
2022/09/23 11:47:06;;;;;;;0.73;0.50;;;;;;;21.24;49.62;100923.25;5050890;28;20052;-67
2022/09/23 11:49:48;;;;;;;0.63;0.38;;;;;;;21.25;50.44;100911.09;5054084;28;20025;-67
2022/09/23 11:52:23;;;;;;;0.30;0.30;;;;;;;21.24;48.52;100915.81;5053947;28;20040;-67
2022/09/23 11:55:16;;;;;;;0.85;0.50;;;;;;;21.34;48.21;100911.31;5043475;28;20029;-67